sensor_id;sensor_type;location;lat;lon;timestamp;pressure;altitude;pressure_sealevel;temperature;humidity
18850;BME280;4989;48.772;9.154;2022-08-30T00:00:21;98205.91;;;23.80;66.03
18850;BME280;4989;48.772;9.154;2022-08-30T00:05:43;98197.69;;;24.38;64.78
18850;BME280;4989;48.772;9.154;2022-08-30T00:10:46;98194.47;;;24.11;61.79
18850;BME280;4989;48.772;9.154;2022-08-30T00:15:50;98196.78;;;24.07;68.46
18850;BME280;4989;48.772;9.154;2022-08-30T00:20:52;98198.69;;;24.52;63.47
18850;BME280;4989;48.772;9.154;2022-08-30T00:25:57;98209.78;;;24.57;64.65
18850;BME280;4989;48.772;9.154;2022-08-30T00:31:00;98214.66;;;24.29;60.50
18850;BME280;4989;48.772;9.154;2022-08-30T00:36:03;98203.78;;;24.31;68.06
18850;BME280;4989;48.772;9.154;2022-08-30T00:41:06;98207.31;;;24.37;61.90
18850;BME280;4989;48.772;9.154;2022-08-30T00:46:09;98210.38;;;24.28;64.83
18850;BME280;4989;48.772;9.154;2022-08-30T00:51:13;98208.63;;;24.19;61.77
18850;BME280;4989;48.772;9.154;2022-08-30T00:56:17;98209.91;;;24.01;63.45
18850;BME280;4989;48.772;9.154;2022-08-30T01:01:23;98203.34;;;24.10;63.24
18850;BME280;4989;48.772;9.154;2022-08-30T01:06:26;98213.91;;;24.22;65.35
18850;BME280;4989;48.772;9.154;2022-08-30T01:11:35;98213.38;;;24.30;63.19
18850;BME280;4989;48.772;9.154;2022-08-30T01:16:40;98210.94;;;24.09;65.43
18850;BME280;4989;48.772;9.154;2022-08-30T01:21:53;98211.38;;;24.36;66.39
18850;BME280;4989;48.772;9.154;2022-08-30T01:26:58;98208.59;;;24.30;62.20
18850;BME280;4989;48.772;9.154;2022-08-30T01:32:01;98207.16;;;23.67;65.07
18850;BME280;4989;48.772;9.154;2022-08-30T01:37:06;98208.44;;;23.89;66.39
18850;BME280;4989;48.772;9.154;2022-08-30T01:42:09;98204.56;;;24.20;66.52
18850;BME280;4989;48.772;9.154;2022-08-30T01:47:12;98206.03;;;24.32;65.00
18850;BME280;4989;48.772;9.154;2022-08-30T01:52:15;98218.72;;;24.11;63.35
18850;BME280;4989;48.772;9.154;2022-08-30T01:57:21;98219.53;;;23.66;65.98
18850;BME280;4989;48.772;9.154;2022-08-30T02:02:26;98221.28;;;24.09;68.62
18850;BME280;4989;48.772;9.154;2022-08-30T02:07:29;98215.38;;;24.35;67.66
18850;BME280;4989;48.772;9.154;2022-08-30T02:12:32;98213.34;;;24.41;66.91
18850;BME280;4989;48.772;9.154;2022-08-30T02:17:36;98216.00;;;23.94;63.07
18850;BME280;4989;48.772;9.154;2022-08-30T02:22:39;98209.94;;;23.56;66.22
18850;BME280;4989;48.772;9.154;2022-08-30T02:27:49;98207.78;;;22.83;66.70
18850;BME280;4989;48.772;9.154;2022-08-30T02:32:51;98206.13;;;22.43;69.64
18850;BME280;4989;48.772;9.154;2022-08-30T02:37:54;98196.22;;;22.91;69.98
18850;BME280;4989;48.772;9.154;2022-08-30T02:42:56;98187.47;;;23.54;70.21
18850;BME280;4989;48.772;9.154;2022-08-30T02:47:59;98193.28;;;23.67;68.65
18850;BME280;4989;48.772;9.154;2022-08-30T02:53:02;98193.78;;;23.83;68.10
18850;BME280;4989;48.772;9.154;2022-08-30T02:58:05;98195.56;;;23.58;66.50
18850;BME280;4989;48.772;9.154;2022-08-30T03:03:09;98184.19;;;23.61;65.78
18850;BME280;4989;48.772;9.154;2022-08-30T03:08:12;98177.41;;;23.45;68.31
18850;BME280;4989;48.772;9.154;2022-08-30T03:13:14;98178.66;;;23.55;64.36
18850;BME280;4989;48.772;9.154;2022-08-30T03:18:18;98175.97;;;22.62;70.07
18850;BME280;4989;48.772;9.154;2022-08-30T03:23:21;98161.50;;;23.12;70.59
18850;BME280;4989;48.772;9.154;2022-08-30T03:28:25;98162.50;;;23.76;70.08
18850;BME280;4989;48.772;9.154;2022-08-30T03:33:27;98169.03;;;23.17;66.58
18850;BME280;4989;48.772;9.154;2022-08-30T03:38:30;98172.59;;;23.35;68.24
18850;BME280;4989;48.772;9.154;2022-08-30T03:43:33;98166.00;;;23.04;67.49
18850;BME280;4989;48.772;9.154;2022-08-30T03:48:36;98167.56;;;23.27;70.98
18850;BME280;4989;48.772;9.154;2022-08-30T03:53:39;98174.38;;;23.60;69.42
18850;BME280;4989;48.772;9.154;2022-08-30T03:58:41;98180.66;;;23.44;66.24
18850;BME280;4989;48.772;9.154;2022-08-30T04:03:44;98176.13;;;23.41;67.42
18850;BME280;4989;48.772;9.154;2022-08-30T04:08:46;98172.06;;;22.97;67.13
18850;BME280;4989;48.772;9.154;2022-08-30T04:13:49;98175.97;;;22.62;69.47
18850;BME280;4989;48.772;9.154;2022-08-30T04:18:53;98174.50;;;22.83;67.71
18850;BME280;4989;48.772;9.154;2022-08-30T04:23:55;98185.47;;;22.01;70.45
18850;BME280;4989;48.772;9.154;2022-08-30T04:28:58;98183.44;;;21.96;76.05
18850;BME280;4989;48.772;9.154;2022-08-30T04:34:00;98177.78;;;22.76;71.42
18850;BME280;4989;48.772;9.154;2022-08-30T04:39:04;98193.69;;;22.93;70.49
18850;BME280;4989;48.772;9.154;2022-08-30T04:44:06;98186.69;;;22.97;70.79
18850;BME280;4989;48.772;9.154;2022-08-30T04:49:15;98192.72;;;22.96;68.91
18850;BME280;4989;48.772;9.154;2022-08-30T04:54:17;98200.03;;;22.99;69.22
18850;BME280;4989;48.772;9.154;2022-08-30T04:59:20;98202.91;;;22.56;69.63
18850;BME280;4989;48.772;9.154;2022-08-30T05:04:23;98216.38;;;22.31;71.79
18850;BME280;4989;48.772;9.154;2022-08-30T05:09:25;98220.41;;;22.84;71.80
18850;BME280;4989;48.772;9.154;2022-08-30T05:14:28;98226.56;;;23.28;70.70
18850;BME280;4989;48.772;9.154;2022-08-30T05:19:31;98231.38;;;23.50;68.73
18850;BME280;4989;48.772;9.154;2022-08-30T05:24:35;98241.00;;;23.71;68.75
18850;BME280;4989;48.772;9.154;2022-08-30T05:29:38;98227.84;;;24.00;68.64
18850;BME280;4989;48.772;9.154;2022-08-30T05:34:40;98221.78;;;23.90;66.75
18850;BME280;4989;48.772;9.154;2022-08-30T05:39:43;98219.53;;;24.00;64.75
18850;BME280;4989;48.772;9.154;2022-08-30T05:44:53;98222.78;;;23.48;65.74
18850;BME280;4989;48.772;9.154;2022-08-30T05:49:56;98219.50;;;23.21;67.89
18850;BME280;4989;48.772;9.154;2022-08-30T05:54:58;98207.00;;;22.77;67.65
18850;BME280;4989;48.772;9.154;2022-08-30T06:00:04;98213.28;;;22.72;68.40
18850;BME280;4989;48.772;9.154;2022-08-30T06:05:13;98230.03;;;23.00;66.81
18850;BME280;4989;48.772;9.154;2022-08-30T06:10:15;98232.50;;;22.93;66.52
18850;BME280;4989;48.772;9.154;2022-08-30T06:15:18;98235.84;;;23.08;70.46
18850;BME280;4989;48.772;9.154;2022-08-30T06:20:21;98231.38;;;23.95;68.91
18850;BME280;4989;48.772;9.154;2022-08-30T06:25:23;98234.56;;;24.55;63.36
18850;BME280;4989;48.772;9.154;2022-08-30T06:30:26;98239.66;;;24.23;62.64
18850;BME280;4989;48.772;9.154;2022-08-30T06:35:28;98227.25;;;24.47;62.59
18850;BME280;4989;48.772;9.154;2022-08-30T06:40:36;98228.53;;;24.40;65.12
18850;BME280;4989;48.772;9.154;2022-08-30T06:45:38;98230.34;;;24.90;63.42
18850;BME280;4989;48.772;9.154;2022-08-30T06:50:41;98231.31;;;24.98;64.25
18850;BME280;4989;48.772;9.154;2022-08-30T06:55:44;98228.78;;;25.00;64.47
18850;BME280;4989;48.772;9.154;2022-08-30T07:00:47;98209.75;;;25.16;64.04
18850;BME280;4989;48.772;9.154;2022-08-30T07:05:49;98216.66;;;25.45;62.20
18850;BME280;4989;48.772;9.154;2022-08-30T07:10:53;98229.28;;;25.81;61.64
18850;BME280;4989;48.772;9.154;2022-08-30T07:15:56;98222.78;;;25.68;61.77
18850;BME280;4989;48.772;9.154;2022-08-30T07:21:06;98217.56;;;26.13;59.99
18850;BME280;4989;48.772;9.154;2022-08-30T07:26:11;98224.28;;;25.99;60.70
18850;BME280;4989;48.772;9.154;2022-08-30T07:31:16;98228.19;;;25.90;60.51
18850;BME280;4989;48.772;9.154;2022-08-30T07:36:22;98241.44;;;26.33;59.40
18850;BME280;4989;48.772;9.154;2022-08-30T07:41:28;98236.56;;;26.83;58.02
18850;BME280;4989;48.772;9.154;2022-08-30T07:46:31;98238.50;;;26.44;58.64
18850;BME280;4989;48.772;9.154;2022-08-30T07:51:34;98231.13;;;26.47;58.56
18850;BME280;4989;48.772;9.154;2022-08-30T07:56:37;98233.84;;;26.77;57.96
18850;BME280;4989;48.772;9.154;2022-08-30T08:01:39;98238.00;;;26.46;59.16
18850;BME280;4989;48.772;9.154;2022-08-30T08:06:42;98233.63;;;26.75;57.86
18850;BME280;4989;48.772;9.154;2022-08-30T08:11:46;98228.88;;;27.46;55.60
18850;BME280;4989;48.772;9.154;2022-08-30T08:16:49;98229.00;;;27.99;53.82
18850;BME280;4989;48.772;9.154;2022-08-30T08:21:51;98233.75;;;27.91;54.87
18850;BME280;4989;48.772;9.154;2022-08-30T08:27:18;98237.00;;;28.08;54.04
18850;BME280;4989;48.772;9.154;2022-08-30T08:32:20;98235.94;;;28.24;53.77
18850;BME280;4989;48.772;9.154;2022-08-30T08:37:23;98229.00;;;28.92;52.03
18850;BME280;4989;48.772;9.154;2022-08-30T08:48:33;98221.88;;;30.01;48.93
18850;BME280;4989;48.772;9.154;2022-08-30T08:54:07;98218.75;;;30.70;46.83
18850;BME280;4989;48.772;9.154;2022-08-30T08:59:13;98215.28;;;32.05;45.03
18850;BME280;4989;48.772;9.154;2022-08-30T09:04:25;98217.88;;;31.42;46.04
18850;BME280;4989;48.772;9.154;2022-08-30T09:09:42;98221.72;;;31.16;46.69
18850;BME280;4989;48.772;9.154;2022-08-30T09:14:50;98208.34;;;31.60;46.18
18850;BME280;4989;48.772;9.154;2022-08-30T09:19:58;98204.56;;;31.73;45.43
18850;BME280;4989;48.772;9.154;2022-08-30T09:30:29;98189.81;;;33.07;43.51
18850;BME280;4989;48.772;9.154;2022-08-30T09:35:37;98189.47;;;34.03;40.71
18850;BME280;4989;48.772;9.154;2022-08-30T09:40:52;98177.16;;;33.91;41.47
18850;BME280;4989;48.772;9.154;2022-08-30T10:01:45;98158.63;;;35.48;37.66
18850;BME280;4989;48.772;9.154;2022-08-30T10:06:53;98158.78;;;36.07;37.37
18850;BME280;4989;48.772;9.154;2022-08-30T10:12:06;98154.34;;;36.62;37.13
18850;BME280;4989;48.772;9.154;2022-08-30T10:22:34;98144.31;;;35.46;39.26
18850;BME280;4989;48.772;9.154;2022-08-30T10:33:09;98132.50;;;36.84;35.47
18850;BME280;4989;48.772;9.154;2022-08-30T10:48:37;98125.53;;;37.78;32.69
18850;BME280;4989;48.772;9.154;2022-08-30T10:53:56;98130.44;;;38.21;28.58
18850;BME280;4989;48.772;9.154;2022-08-30T10:59:00;98117.91;;;40.24;27.58
18850;BME280;4989;48.772;9.154;2022-08-30T11:14:52;98112.41;;;39.30;29.48
18850;BME280;4989;48.772;9.154;2022-08-30T11:19:57;98108.81;;;37.20;31.83
18850;BME280;4989;48.772;9.154;2022-08-30T11:25:13;98103.41;;;37.24;31.49
18850;BME280;4989;48.772;9.154;2022-08-30T11:35:40;98101.81;;;34.01;35.71
18850;BME280;4989;48.772;9.154;2022-08-30T11:56:50;98093.59;;;33.36;36.21
18850;BME280;4989;48.772;9.154;2022-08-30T12:01:57;98099.06;;;32.76;37.97
18850;BME280;4989;48.772;9.154;2022-08-30T12:07:07;98092.63;;;32.02;38.93
18850;BME280;4989;48.772;9.154;2022-08-30T12:28:23;98087.13;;;31.41;39.62
18850;BME280;4989;48.772;9.154;2022-08-30T12:33:33;98076.91;;;31.91;40.65
18850;BME280;4989;48.772;9.154;2022-08-30T12:38:43;98079.91;;;32.42;39.18
18850;BME280;4989;48.772;9.154;2022-08-30T12:43:51;98066.94;;;32.54;42.07
18850;BME280;4989;48.772;9.154;2022-08-30T12:48:53;98075.59;;;32.40;41.13
18850;BME280;4989;48.772;9.154;2022-08-30T12:54:27;98069.34;;;32.09;42.48
18850;BME280;4989;48.772;9.154;2022-08-30T12:59:46;98066.97;;;31.90;39.89
18850;BME280;4989;48.772;9.154;2022-08-30T13:04:56;98053.25;;;32.02;44.05
18850;BME280;4989;48.772;9.154;2022-08-30T13:15:34;98037.19;;;36.28;36.62
18850;BME280;4989;48.772;9.154;2022-08-30T13:20:42;98017.28;;;35.68;38.13
18850;BME280;4989;48.772;9.154;2022-08-30T13:25:45;98023.22;;;36.11;34.56
18850;BME280;4989;48.772;9.154;2022-08-30T13:30:47;98015.72;;;33.65;41.09
18850;BME280;4989;48.772;9.154;2022-08-30T13:35:49;98017.81;;;31.05;44.93
18850;BME280;4989;48.772;9.154;2022-08-30T13:40:55;98004.41;;;30.29;47.43
18850;BME280;4989;48.772;9.154;2022-08-30T13:45:58;98008.53;;;29.55;49.46
18850;BME280;4989;48.772;9.154;2022-08-30T13:51:00;98003.25;;;29.80;47.63
18850;BME280;4989;48.772;9.154;2022-08-30T13:56:04;97989.00;;;31.83;45.13
18850;BME280;4989;48.772;9.154;2022-08-30T14:01:08;97984.47;;;31.17;46.07
18850;BME280;4989;48.772;9.154;2022-08-30T14:06:11;97982.59;;;31.12;46.86
18850;BME280;4989;48.772;9.154;2022-08-30T14:11:36;97982.25;;;32.27;44.57
18850;BME280;4989;48.772;9.154;2022-08-30T14:16:41;97972.97;;;32.09;39.08
18850;BME280;4989;48.772;9.154;2022-08-30T14:21:45;97964.06;;;32.53;41.12
18850;BME280;4989;48.772;9.154;2022-08-30T14:26:50;97965.03;;;34.19;37.28
18850;BME280;4989;48.772;9.154;2022-08-30T14:31:53;97964.50;;;35.04;39.42
18850;BME280;4989;48.772;9.154;2022-08-30T14:36:56;97960.38;;;35.64;34.95
18850;BME280;4989;48.772;9.154;2022-08-30T14:41:59;97956.63;;;35.32;34.61
18850;BME280;4989;48.772;9.154;2022-08-30T14:47:08;97959.63;;;33.69;34.98
18850;BME280;4989;48.772;9.154;2022-08-30T14:52:11;97949.25;;;32.77;40.89
18850;BME280;4989;48.772;9.154;2022-08-30T14:57:14;97944.38;;;31.24;45.94
18850;BME280;4989;48.772;9.154;2022-08-30T15:02:17;97947.66;;;31.61;45.78
18850;BME280;4989;48.772;9.154;2022-08-30T15:07:20;97955.03;;;31.97;43.94
18850;BME280;4989;48.772;9.154;2022-08-30T15:12:23;97955.94;;;30.21;48.17
18850;BME280;4989;48.772;9.154;2022-08-30T15:17:25;97946.50;;;29.95;48.62
18850;BME280;4989;48.772;9.154;2022-08-30T15:22:28;97942.25;;;30.09;48.29
18850;BME280;4989;48.772;9.154;2022-08-30T15:27:31;97931.66;;;30.46;47.60
18850;BME280;4989;48.772;9.154;2022-08-30T15:32:34;97942.94;;;30.85;45.30
18850;BME280;4989;48.772;9.154;2022-08-30T15:37:37;97940.09;;;31.00;45.52
18850;BME280;4989;48.772;9.154;2022-08-30T15:42:40;97943.31;;;30.81;47.51
18850;BME280;4989;48.772;9.154;2022-08-30T15:47:43;97929.00;;;31.33;45.29
18850;BME280;4989;48.772;9.154;2022-08-30T15:52:46;97924.16;;;31.18;45.23
18850;BME280;4989;48.772;9.154;2022-08-30T15:57:48;97924.06;;;29.95;48.63
18850;BME280;4989;48.772;9.154;2022-08-30T16:02:51;97915.25;;;29.76;49.54
18850;BME280;4989;48.772;9.154;2022-08-30T16:07:54;97909.50;;;29.09;51.27
18850;BME280;4989;48.772;9.154;2022-08-30T16:12:56;97907.75;;;28.77;52.95
18850;BME280;4989;48.772;9.154;2022-08-30T16:18:01;97914.72;;;29.12;47.44
18850;BME280;4989;48.772;9.154;2022-08-30T16:23:04;97906.84;;;29.39;45.97
18850;BME280;4989;48.772;9.154;2022-08-30T16:28:06;97915.09;;;29.45;49.37
18850;BME280;4989;48.772;9.154;2022-08-30T16:33:10;97911.81;;;29.26;50.54
18850;BME280;4989;48.772;9.154;2022-08-30T16:38:13;97907.06;;;29.41;48.52
18850;BME280;4989;48.772;9.154;2022-08-30T16:43:17;97909.34;;;29.58;45.59
18850;BME280;4989;48.772;9.154;2022-08-30T16:48:20;97907.06;;;29.41;49.13
18850;BME280;4989;48.772;9.154;2022-08-30T16:53:24;97903.38;;;29.18;51.54
18850;BME280;4989;48.772;9.154;2022-08-30T16:58:26;97895.56;;;28.95;50.12
18850;BME280;4989;48.772;9.154;2022-08-30T17:03:29;97911.56;;;29.16;47.01
18850;BME280;4989;48.772;9.154;2022-08-30T17:08:32;97900.06;;;28.98;51.48
18850;BME280;4989;48.772;9.154;2022-08-30T17:13:35;97910.50;;;28.69;49.01
18850;BME280;4989;48.772;9.154;2022-08-30T17:18:38;97923.03;;;28.76;52.04
18850;BME280;4989;48.772;9.154;2022-08-30T17:23:43;97930.75;;;28.62;50.15
18850;BME280;4989;48.772;9.154;2022-08-30T17:28:46;97931.22;;;28.74;50.22
18850;BME280;4989;48.772;9.154;2022-08-30T17:33:49;97948.66;;;28.59;50.11
18850;BME280;4989;48.772;9.154;2022-08-30T17:38:51;97947.22;;;28.45;54.12
18850;BME280;4989;48.772;9.154;2022-08-30T17:43:53;97950.22;;;28.47;49.35
18850;BME280;4989;48.772;9.154;2022-08-30T17:48:56;97958.22;;;28.43;49.50
18850;BME280;4989;48.772;9.154;2022-08-30T17:54:02;97962.31;;;28.42;52.61
18850;BME280;4989;48.772;9.154;2022-08-30T17:59:06;97959.75;;;28.30;52.29
18850;BME280;4989;48.772;9.154;2022-08-30T18:04:12;97962.66;;;28.25;47.90
18850;BME280;4989;48.772;9.154;2022-08-30T18:09:21;97976.97;;;28.21;50.92
18850;BME280;4989;48.772;9.154;2022-08-30T18:14:24;97970.22;;;28.17;54.67
18850;BME280;4989;48.772;9.154;2022-08-30T18:19:28;97979.50;;;28.12;50.01
18850;BME280;4989;48.772;9.154;2022-08-30T18:24:31;97975.06;;;28.16;54.67
18850;BME280;4989;48.772;9.154;2022-08-30T18:29:35;97987.31;;;28.13;50.23
18850;BME280;4989;48.772;9.154;2022-08-30T18:34:38;97988.53;;;28.04;51.88
18850;BME280;4989;48.772;9.154;2022-08-30T18:39:43;97993.94;;;28.02;55.27
18850;BME280;4989;48.772;9.154;2022-08-30T18:44:48;98002.75;;;27.93;53.86
18850;BME280;4989;48.772;9.154;2022-08-30T18:49:52;98005.34;;;27.91;55.67
18850;BME280;4989;48.772;9.154;2022-08-30T18:54:55;98008.25;;;27.85;50.17
18850;BME280;4989;48.772;9.154;2022-08-30T19:00:00;98012.34;;;27.84;53.48
18850;BME280;4989;48.772;9.154;2022-08-30T19:05:03;98015.53;;;27.75;49.44
18850;BME280;4989;48.772;9.154;2022-08-30T19:10:06;98014.91;;;27.69;50.53
18850;BME280;4989;48.772;9.154;2022-08-30T19:15:13;98020.03;;;27.65;53.95
18850;BME280;4989;48.772;9.154;2022-08-30T19:20:19;98029.28;;;27.47;47.94
18850;BME280;4989;48.772;9.154;2022-08-30T19:25:23;98032.09;;;27.47;47.76
18850;BME280;4989;48.772;9.154;2022-08-30T19:30:26;98038.09;;;27.37;53.15
18850;BME280;4989;48.772;9.154;2022-08-30T19:35:31;98042.94;;;27.37;47.89
18850;BME280;4989;48.772;9.154;2022-08-30T19:40:34;98039.63;;;27.38;56.99
18850;BME280;4989;48.772;9.154;2022-08-30T19:45:36;98040.88;;;27.37;47.07
18850;BME280;4989;48.772;9.154;2022-08-30T19:50:39;98046.28;;;27.49;53.36
18850;BME280;4989;48.772;9.154;2022-08-30T19:55:42;98040.91;;;27.51;55.36
18850;BME280;4989;48.772;9.154;2022-08-30T20:00:45;98025.75;;;27.46;56.03
18850;BME280;4989;48.772;9.154;2022-08-30T20:06:02;98040.69;;;27.35;48.84
18850;BME280;4989;48.772;9.154;2022-08-30T20:11:06;98047.44;;;26.94;47.36
18850;BME280;4989;48.772;9.154;2022-08-30T20:16:11;98047.13;;;26.98;45.79
18850;BME280;4989;48.772;9.154;2022-08-30T20:21:14;98037.97;;;26.84;46.65
18850;BME280;4989;48.772;9.154;2022-08-30T20:26:17;98045.69;;;26.78;51.06
18850;BME280;4989;48.772;9.154;2022-08-30T20:31:19;98038.41;;;26.88;44.51
18850;BME280;4989;48.772;9.154;2022-08-30T20:36:22;98040.00;;;26.33;45.83
18850;BME280;4989;48.772;9.154;2022-08-30T20:41:24;98034.25;;;26.25;45.83
18850;BME280;4989;48.772;9.154;2022-08-30T20:46:30;98028.56;;;26.17;46.40
18850;BME280;4989;48.772;9.154;2022-08-30T20:51:35;98027.38;;;26.26;48.64
18850;BME280;4989;48.772;9.154;2022-08-30T20:56:40;98025.50;;;26.34;45.71
18850;BME280;4989;48.772;9.154;2022-08-30T21:01:43;98019.22;;;26.15;54.41
18850;BME280;4989;48.772;9.154;2022-08-30T21:06:46;98019.34;;;26.22;46.44
18850;BME280;4989;48.772;9.154;2022-08-30T21:11:48;98019.34;;;26.03;47.16
18850;BME280;4989;48.772;9.154;2022-08-30T21:16:51;98026.84;;;26.46;54.68
18850;BME280;4989;48.772;9.154;2022-08-30T21:21:53;98037.25;;;26.46;47.79
18850;BME280;4989;48.772;9.154;2022-08-30T21:26:56;98027.91;;;26.62;49.76
18850;BME280;4989;48.772;9.154;2022-08-30T21:31:59;98033.88;;;26.72;51.87
18850;BME280;4989;48.772;9.154;2022-08-30T21:37:01;98025.22;;;26.57;49.88
18850;BME280;4989;48.772;9.154;2022-08-30T21:42:04;98030.41;;;26.28;47.05
18850;BME280;4989;48.772;9.154;2022-08-30T21:47:07;98031.97;;;25.86;48.24
18850;BME280;4989;48.772;9.154;2022-08-30T21:52:10;98035.41;;;25.73;49.04
18850;BME280;4989;48.772;9.154;2022-08-30T21:57:12;98031.19;;;25.66;55.78
18850;BME280;4989;48.772;9.154;2022-08-30T22:02:17;98048.41;;;26.08;53.74
18850;BME280;4989;48.772;9.154;2022-08-30T22:07:20;98040.78;;;26.46;58.85
18850;BME280;4989;48.772;9.154;2022-08-30T22:12:22;98046.13;;;26.44;52.76
18850;BME280;4989;48.772;9.154;2022-08-30T22:17:27;98039.53;;;26.10;53.71
18850;BME280;4989;48.772;9.154;2022-08-30T22:22:29;98046.03;;;26.18;54.54
18850;BME280;4989;48.772;9.154;2022-08-30T22:27:32;98054.31;;;26.23;54.59
18850;BME280;4989;48.772;9.154;2022-08-30T22:32:35;98063.47;;;26.37;54.38
18850;BME280;4989;48.772;9.154;2022-08-30T22:37:39;98061.97;;;26.36;57.70
18850;BME280;4989;48.772;9.154;2022-08-30T22:42:48;98062.25;;;26.14;48.42
18850;BME280;4989;48.772;9.154;2022-08-30T22:47:51;98056.09;;;26.40;57.63
18850;BME280;4989;48.772;9.154;2022-08-30T22:52:54;98058.28;;;26.28;53.50
18850;BME280;4989;48.772;9.154;2022-08-30T22:57:56;98066.94;;;26.43;58.95
18850;BME280;4989;48.772;9.154;2022-08-30T23:02:59;98072.97;;;26.47;58.07
18850;BME280;4989;48.772;9.154;2022-08-30T23:08:02;98069.06;;;26.37;54.16
18850;BME280;4989;48.772;9.154;2022-08-30T23:13:05;98076.13;;;26.38;56.70
18850;BME280;4989;48.772;9.154;2022-08-30T23:18:07;98072.06;;;26.39;60.16
18850;BME280;4989;48.772;9.154;2022-08-30T23:23:10;98068.16;;;26.29;48.35
18850;BME280;4989;48.772;9.154;2022-08-30T23:28:13;98073.41;;;26.14;56.27
18850;BME280;4989;48.772;9.154;2022-08-30T23:33:34;98078.97;;;26.14;59.71
18850;BME280;4989;48.772;9.154;2022-08-30T23:38:56;98074.84;;;26.01;49.20
18850;BME280;4989;48.772;9.154;2022-08-30T23:44:17;98062.44;;;26.02;57.38
18850;BME280;4989;48.772;9.154;2022-08-30T23:49:38;98063.78;;;26.15;57.07
18850;BME280;4989;48.772;9.154;2022-08-30T23:55:00;98050.44;;;26.08;59.14
